sensor_id;sensor_type;location;lat;lon;timestamp;P1;durP1;ratioP1;P2;durP2;ratioP2
5869;SDS011;2961;47.702;9.410;2023-05-18T00:00:16;6.90;;;5.00;;
5869;SDS011;2961;47.702;9.410;2023-05-18T00:02:43;8.47;;;5.00;;
5869;SDS011;2961;47.702;9.410;2023-05-18T00:05:12;12.07;;;4.57;;
5869;SDS011;2961;47.702;9.410;2023-05-18T00:07:39;9.43;;;5.73;;
5869;SDS011;2961;47.702;9.410;2023-05-18T00:10:09;5.87;;;4.00;;
5869;SDS011;2961;47.702;9.410;2023-05-18T00:12:36;11.60;;;4.53;;
5869;SDS011;2961;47.702;9.410;2023-05-18T00:15:03;6.60;;;4.37;;
5869;SDS011;2961;47.702;9.410;2023-05-18T00:17:30;8.30;;;4.97;;
5869;SDS011;2961;47.702;9.410;2023-05-18T00:19:57;10.23;;;4.60;;
5869;SDS011;2961;47.702;9.410;2023-05-18T00:22:24;5.07;;;4.30;;
5869;SDS011;2961;47.702;9.410;2023-05-18T00:24:51;9.40;;;4.90;;
5869;SDS011;2961;47.702;9.410;2023-05-18T00:27:19;6.40;;;4.17;;
5869;SDS011;2961;47.702;9.410;2023-05-18T00:29:46;7.30;;;4.53;;
5869;SDS011;2961;47.702;9.410;2023-05-18T00:32:13;6.20;;;4.10;;
5869;SDS011;2961;47.702;9.410;2023-05-18T00:34:40;6.70;;;4.77;;
5869;SDS011;2961;47.702;9.410;2023-05-18T00:37:07;6.27;;;4.80;;
5869;SDS011;2961;47.702;9.410;2023-05-18T00:39:33;12.83;;;5.43;;
5869;SDS011;2961;47.702;9.410;2023-05-18T00:42:00;9.10;;;4.10;;
5869;SDS011;2961;47.702;9.410;2023-05-18T00:44:28;5.67;;;4.83;;
5869;SDS011;2961;47.702;9.410;2023-05-18T00:46:55;7.30;;;4.43;;
5869;SDS011;2961;47.702;9.410;2023-05-18T00:49:24;12.03;;;4.47;;
5869;SDS011;2961;47.702;9.410;2023-05-18T00:51:51;11.77;;;5.00;;
5869;SDS011;2961;47.702;9.410;2023-05-18T00:54:18;11.63;;;5.20;;
5869;SDS011;2961;47.702;9.410;2023-05-18T00:56:46;7.97;;;5.27;;
5869;SDS011;2961;47.702;9.410;2023-05-18T00:59:13;7.30;;;4.57;;
5869;SDS011;2961;47.702;9.410;2023-05-18T01:01:41;8.80;;;5.30;;
5869;SDS011;2961;47.702;9.410;2023-05-18T01:04:10;11.33;;;5.27;;
5869;SDS011;2961;47.702;9.410;2023-05-18T01:06:39;14.00;;;5.00;;
5869;SDS011;2961;47.702;9.410;2023-05-18T01:09:07;7.00;;;4.90;;
5869;SDS011;2961;47.702;9.410;2023-05-18T01:11:42;10.30;;;4.70;;
5869;SDS011;2961;47.702;9.410;2023-05-18T01:14:17;14.47;;;5.90;;
5869;SDS011;2961;47.702;9.410;2023-05-18T01:16:53;8.17;;;5.10;;
5869;SDS011;2961;47.702;9.410;2023-05-18T01:19:30;10.47;;;5.47;;
5869;SDS011;2961;47.702;9.410;2023-05-18T01:22:16;7.73;;;4.30;;
5869;SDS011;2961;47.702;9.410;2023-05-18T01:24:57;15.73;;;5.00;;
5869;SDS011;2961;47.702;9.410;2023-05-18T01:27:30;6.17;;;4.43;;
5869;SDS011;2961;47.702;9.410;2023-05-18T01:30:01;12.13;;;5.73;;
5869;SDS011;2961;47.702;9.410;2023-05-18T01:32:28;12.70;;;5.23;;
5869;SDS011;2961;47.702;9.410;2023-05-18T01:34:55;10.23;;;4.63;;
5869;SDS011;2961;47.702;9.410;2023-05-18T01:37:22;8.60;;;5.20;;
5869;SDS011;2961;47.702;9.410;2023-05-18T01:39:49;6.70;;;4.53;;
5869;SDS011;2961;47.702;9.410;2023-05-18T01:42:18;15.60;;;6.40;;
5869;SDS011;2961;47.702;9.410;2023-05-18T01:44:52;9.10;;;5.27;;
5869;SDS011;2961;47.702;9.410;2023-05-18T01:47:20;11.80;;;5.93;;
5869;SDS011;2961;47.702;9.410;2023-05-18T01:49:50;9.13;;;5.17;;
5869;SDS011;2961;47.702;9.410;2023-05-18T01:52:22;13.90;;;5.97;;
5869;SDS011;2961;47.702;9.410;2023-05-18T01:54:55;6.47;;;4.83;;
5869;SDS011;2961;47.702;9.410;2023-05-18T01:57:24;10.33;;;5.43;;
5869;SDS011;2961;47.702;9.410;2023-05-18T01:59:56;11.83;;;6.00;;
5869;SDS011;2961;47.702;9.410;2023-05-18T02:02:25;9.50;;;4.57;;
5869;SDS011;2961;47.702;9.410;2023-05-18T02:04:52;9.53;;;5.53;;
5869;SDS011;2961;47.702;9.410;2023-05-18T02:07:19;6.30;;;4.97;;
5869;SDS011;2961;47.702;9.410;2023-05-18T02:09:46;6.13;;;5.00;;
5869;SDS011;2961;47.702;9.410;2023-05-18T02:12:13;12.30;;;5.23;;
5869;SDS011;2961;47.702;9.410;2023-05-18T02:14:39;11.03;;;6.00;;
5869;SDS011;2961;47.702;9.410;2023-05-18T02:17:07;8.53;;;5.27;;
5869;SDS011;2961;47.702;9.410;2023-05-18T02:19:35;6.57;;;5.00;;
5869;SDS011;2961;47.702;9.410;2023-05-18T02:22:02;7.13;;;5.07;;
5869;SDS011;2961;47.702;9.410;2023-05-18T02:24:30;8.23;;;4.67;;
5869;SDS011;2961;47.702;9.410;2023-05-18T02:26:58;8.77;;;5.60;;
5869;SDS011;2961;47.702;9.410;2023-05-18T02:29:25;7.47;;;5.60;;
5869;SDS011;2961;47.702;9.410;2023-05-18T02:31:52;13.37;;;6.33;;
5869;SDS011;2961;47.702;9.410;2023-05-18T02:34:20;14.03;;;5.17;;
5869;SDS011;2961;47.702;9.410;2023-05-18T02:36:48;7.43;;;5.20;;
5869;SDS011;2961;47.702;9.410;2023-05-18T02:39:15;6.83;;;5.40;;
5869;SDS011;2961;47.702;9.410;2023-05-18T02:41:42;10.40;;;4.90;;
5869;SDS011;2961;47.702;9.410;2023-05-18T02:44:09;9.90;;;4.83;;
5869;SDS011;2961;47.702;9.410;2023-05-18T02:46:36;7.53;;;5.30;;
5869;SDS011;2961;47.702;9.410;2023-05-18T02:49:03;7.73;;;5.70;;
5869;SDS011;2961;47.702;9.410;2023-05-18T02:51:31;14.80;;;5.60;;
5869;SDS011;2961;47.702;9.410;2023-05-18T02:53:58;9.40;;;5.70;;
5869;SDS011;2961;47.702;9.410;2023-05-18T02:56:24;12.00;;;4.63;;
5869;SDS011;2961;47.702;9.410;2023-05-18T02:58:52;8.27;;;4.60;;
5869;SDS011;2961;47.702;9.410;2023-05-18T03:01:21;13.53;;;7.10;;
5869;SDS011;2961;47.702;9.410;2023-05-18T03:03:51;8.90;;;4.60;;
5869;SDS011;2961;47.702;9.410;2023-05-18T03:06:18;10.37;;;5.03;;
5869;SDS011;2961;47.702;9.410;2023-05-18T03:08:48;13.47;;;5.07;;
5869;SDS011;2961;47.702;9.410;2023-05-18T03:11:18;10.57;;;5.53;;
5869;SDS011;2961;47.702;9.410;2023-05-18T03:13:45;9.53;;;4.93;;
5869;SDS011;2961;47.702;9.410;2023-05-18T03:16:12;12.37;;;5.90;;
5869;SDS011;2961;47.702;9.410;2023-05-18T03:18:39;14.43;;;5.80;;
5869;SDS011;2961;47.702;9.410;2023-05-18T03:21:05;6.67;;;4.83;;
5869;SDS011;2961;47.702;9.410;2023-05-18T03:23:32;11.47;;;4.97;;
5869;SDS011;2961;47.702;9.410;2023-05-18T03:26:01;11.37;;;5.97;;
5869;SDS011;2961;47.702;9.410;2023-05-18T03:28:34;10.63;;;6.17;;
5869;SDS011;2961;47.702;9.410;2023-05-18T03:31:01;10.73;;;5.67;;
5869;SDS011;2961;47.702;9.410;2023-05-18T03:33:28;15.03;;;5.73;;
5869;SDS011;2961;47.702;9.410;2023-05-18T03:35:55;10.70;;;5.20;;
5869;SDS011;2961;47.702;9.410;2023-05-18T03:38:21;14.43;;;6.23;;
5869;SDS011;2961;47.702;9.410;2023-05-18T03:40:48;17.47;;;5.10;;
5869;SDS011;2961;47.702;9.410;2023-05-18T03:43:16;14.77;;;5.90;;
5869;SDS011;2961;47.702;9.410;2023-05-18T03:45:43;8.83;;;5.70;;
5869;SDS011;2961;47.702;9.410;2023-05-18T03:48:10;12.47;;;5.90;;
5869;SDS011;2961;47.702;9.410;2023-05-18T03:50:37;9.63;;;6.40;;
5869;SDS011;2961;47.702;9.410;2023-05-18T03:53:04;14.43;;;5.53;;
5869;SDS011;2961;47.702;9.410;2023-05-18T03:55:31;6.67;;;5.00;;
5869;SDS011;2961;47.702;9.410;2023-05-18T03:57:58;10.87;;;5.20;;
5869;SDS011;2961;47.702;9.410;2023-05-18T04:00:26;11.57;;;6.10;;
5869;SDS011;2961;47.702;9.410;2023-05-18T04:02:54;9.70;;;6.13;;
5869;SDS011;2961;47.702;9.410;2023-05-18T04:05:21;9.60;;;6.20;;
5869;SDS011;2961;47.702;9.410;2023-05-18T04:07:48;8.93;;;5.87;;
5869;SDS011;2961;47.702;9.410;2023-05-18T04:10:15;10.53;;;5.20;;
5869;SDS011;2961;47.702;9.410;2023-05-18T04:12:43;10.70;;;6.10;;
5869;SDS011;2961;47.702;9.410;2023-05-18T04:15:10;9.37;;;5.60;;
5869;SDS011;2961;47.702;9.410;2023-05-18T04:17:39;10.80;;;6.47;;
5869;SDS011;2961;47.702;9.410;2023-05-18T04:20:09;10.90;;;5.43;;
5869;SDS011;2961;47.702;9.410;2023-05-18T04:22:38;13.93;;;5.83;;
5869;SDS011;2961;47.702;9.410;2023-05-18T04:25:10;11.80;;;6.60;;
5869;SDS011;2961;47.702;9.410;2023-05-18T04:27:37;10.00;;;6.10;;
5869;SDS011;2961;47.702;9.410;2023-05-18T04:30:06;14.03;;;6.00;;
5869;SDS011;2961;47.702;9.410;2023-05-18T04:32:34;14.83;;;5.80;;
5869;SDS011;2961;47.702;9.410;2023-05-18T04:35:03;11.37;;;5.87;;
5869;SDS011;2961;47.702;9.410;2023-05-18T04:37:31;7.53;;;5.60;;
5869;SDS011;2961;47.702;9.410;2023-05-18T04:39:57;17.93;;;6.67;;
5869;SDS011;2961;47.702;9.410;2023-05-18T04:42:26;27.30;;;6.33;;
5869;SDS011;2961;47.702;9.410;2023-05-18T04:44:53;12.50;;;6.50;;
5869;SDS011;2961;47.702;9.410;2023-05-18T04:47:20;10.53;;;5.60;;
5869;SDS011;2961;47.702;9.410;2023-05-18T04:49:48;9.93;;;6.57;;
5869;SDS011;2961;47.702;9.410;2023-05-18T04:52:17;14.93;;;5.90;;
5869;SDS011;2961;47.702;9.410;2023-05-18T04:54:44;12.87;;;6.43;;
5869;SDS011;2961;47.702;9.410;2023-05-18T04:57:11;12.10;;;6.27;;
5869;SDS011;2961;47.702;9.410;2023-05-18T04:59:38;9.23;;;5.93;;
5869;SDS011;2961;47.702;9.410;2023-05-18T05:02:06;11.33;;;5.33;;
5869;SDS011;2961;47.702;9.410;2023-05-18T05:04:33;12.17;;;5.83;;
5869;SDS011;2961;47.702;9.410;2023-05-18T05:07:00;17.10;;;5.93;;
5869;SDS011;2961;47.702;9.410;2023-05-18T05:09:28;10.90;;;5.90;;
5869;SDS011;2961;47.702;9.410;2023-05-18T05:11:55;11.20;;;6.50;;
5869;SDS011;2961;47.702;9.410;2023-05-18T05:14:22;14.67;;;6.20;;
5869;SDS011;2961;47.702;9.410;2023-05-18T05:16:48;11.97;;;6.23;;
5869;SDS011;2961;47.702;9.410;2023-05-18T05:19:15;16.53;;;5.63;;
5869;SDS011;2961;47.702;9.410;2023-05-18T05:21:42;9.00;;;5.33;;
5869;SDS011;2961;47.702;9.410;2023-05-18T05:24:09;12.83;;;4.83;;
5869;SDS011;2961;47.702;9.410;2023-05-18T05:26:37;10.43;;;4.70;;
5869;SDS011;2961;47.702;9.410;2023-05-18T05:29:03;10.30;;;4.33;;
5869;SDS011;2961;47.702;9.410;2023-05-18T05:31:30;9.93;;;5.10;;
5869;SDS011;2961;47.702;9.410;2023-05-18T05:33:58;9.77;;;4.77;;
5869;SDS011;2961;47.702;9.410;2023-05-18T05:36:25;9.93;;;5.40;;
5869;SDS011;2961;47.702;9.410;2023-05-18T05:38:52;8.97;;;5.33;;
5869;SDS011;2961;47.702;9.410;2023-05-18T05:41:18;11.90;;;7.33;;
5869;SDS011;2961;47.702;9.410;2023-05-18T05:43:47;12.50;;;5.87;;
5869;SDS011;2961;47.702;9.410;2023-05-18T05:46:14;9.10;;;4.80;;
5869;SDS011;2961;47.702;9.410;2023-05-18T05:48:42;11.37;;;6.10;;
5869;SDS011;2961;47.702;9.410;2023-05-18T05:51:09;7.20;;;5.37;;
5869;SDS011;2961;47.702;9.410;2023-05-18T05:53:36;9.53;;;5.30;;
5869;SDS011;2961;47.702;9.410;2023-05-18T05:56:02;8.63;;;4.73;;
5869;SDS011;2961;47.702;9.410;2023-05-18T05:58:31;13.13;;;5.70;;
5869;SDS011;2961;47.702;9.410;2023-05-18T06:01:00;8.90;;;5.53;;
5869;SDS011;2961;47.702;9.410;2023-05-18T06:03:26;11.00;;;4.90;;
5869;SDS011;2961;47.702;9.410;2023-05-18T06:05:55;11.00;;;4.80;;
5869;SDS011;2961;47.702;9.410;2023-05-18T06:08:22;8.47;;;5.27;;
5869;SDS011;2961;47.702;9.410;2023-05-18T06:10:49;8.73;;;5.13;;
5869;SDS011;2961;47.702;9.410;2023-05-18T06:13:16;6.83;;;4.43;;
5869;SDS011;2961;47.702;9.410;2023-05-18T06:15:43;17.50;;;5.90;;
5869;SDS011;2961;47.702;9.410;2023-05-18T06:18:11;8.77;;;5.03;;
5869;SDS011;2961;47.702;9.410;2023-05-18T06:20:38;7.67;;;5.83;;
5869;SDS011;2961;47.702;9.410;2023-05-18T06:23:05;12.97;;;5.77;;
5869;SDS011;2961;47.702;9.410;2023-05-18T06:25:31;10.07;;;5.67;;
5869;SDS011;2961;47.702;9.410;2023-05-18T06:27:59;8.27;;;5.47;;
5869;SDS011;2961;47.702;9.410;2023-05-18T06:30:26;9.03;;;6.00;;
5869;SDS011;2961;47.702;9.410;2023-05-18T06:32:52;13.03;;;5.47;;
5869;SDS011;2961;47.702;9.410;2023-05-18T06:35:21;9.77;;;6.23;;
5869;SDS011;2961;47.702;9.410;2023-05-18T06:37:48;7.83;;;5.97;;
5869;SDS011;2961;47.702;9.410;2023-05-18T06:40:15;10.70;;;4.93;;
5869;SDS011;2961;47.702;9.410;2023-05-18T06:42:42;12.57;;;5.90;;
5869;SDS011;2961;47.702;9.410;2023-05-18T06:45:09;7.77;;;5.57;;
5869;SDS011;2961;47.702;9.410;2023-05-18T06:47:37;8.97;;;5.53;;
5869;SDS011;2961;47.702;9.410;2023-05-18T06:50:04;12.90;;;5.80;;
5869;SDS011;2961;47.702;9.410;2023-05-18T06:52:32;15.30;;;6.80;;
5869;SDS011;2961;47.702;9.410;2023-05-18T06:54:59;10.47;;;6.00;;
5869;SDS011;2961;47.702;9.410;2023-05-18T06:57:26;8.30;;;6.70;;
5869;SDS011;2961;47.702;9.410;2023-05-18T06:59:53;8.77;;;6.20;;
5869;SDS011;2961;47.702;9.410;2023-05-18T07:02:20;13.33;;;7.10;;
5869;SDS011;2961;47.702;9.410;2023-05-18T07:04:47;10.27;;;6.80;;
5869;SDS011;2961;47.702;9.410;2023-05-18T07:07:15;10.60;;;6.20;;
5869;SDS011;2961;47.702;9.410;2023-05-18T07:09:43;11.77;;;6.77;;
5869;SDS011;2961;47.702;9.410;2023-05-18T07:12:10;11.33;;;6.60;;
5869;SDS011;2961;47.702;9.410;2023-05-18T07:14:37;10.73;;;7.70;;
5869;SDS011;2961;47.702;9.410;2023-05-18T07:17:03;13.57;;;7.03;;
5869;SDS011;2961;47.702;9.410;2023-05-18T07:19:31;14.50;;;6.63;;
5869;SDS011;2961;47.702;9.410;2023-05-18T07:21:59;9.17;;;6.13;;
5869;SDS011;2961;47.702;9.410;2023-05-18T07:24:26;8.33;;;6.30;;
5869;SDS011;2961;47.702;9.410;2023-05-18T07:26:55;8.70;;;6.80;;
5869;SDS011;2961;47.702;9.410;2023-05-18T07:29:22;10.60;;;7.20;;
5869;SDS011;2961;47.702;9.410;2023-05-18T07:31:48;14.13;;;6.53;;
5869;SDS011;2961;47.702;9.410;2023-05-18T07:34:15;10.77;;;6.30;;
5869;SDS011;2961;47.702;9.410;2023-05-18T07:36:42;9.00;;;6.10;;
5869;SDS011;2961;47.702;9.410;2023-05-18T07:39:09;10.63;;;6.60;;
5869;SDS011;2961;47.702;9.410;2023-05-18T07:41:42;8.70;;;5.93;;
5869;SDS011;2961;47.702;9.410;2023-05-18T07:44:10;9.77;;;6.80;;
5869;SDS011;2961;47.702;9.410;2023-05-18T07:46:37;18.50;;;6.93;;
5869;SDS011;2961;47.702;9.410;2023-05-18T07:49:04;9.53;;;5.77;;
5869;SDS011;2961;47.702;9.410;2023-05-18T07:51:31;6.70;;;5.33;;
5869;SDS011;2961;47.702;9.410;2023-05-18T07:53:58;12.67;;;6.50;;
5869;SDS011;2961;47.702;9.410;2023-05-18T07:56:25;6.47;;;5.80;;
5869;SDS011;2961;47.702;9.410;2023-05-18T07:58:51;9.53;;;6.10;;
5869;SDS011;2961;47.702;9.410;2023-05-18T08:01:20;9.27;;;5.50;;
5869;SDS011;2961;47.702;9.410;2023-05-18T08:03:51;9.53;;;5.50;;
5869;SDS011;2961;47.702;9.410;2023-05-18T08:06:18;7.00;;;5.10;;
5869;SDS011;2961;47.702;9.410;2023-05-18T08:08:45;6.60;;;4.97;;
5869;SDS011;2961;47.702;9.410;2023-05-18T08:11:12;10.80;;;5.73;;
5869;SDS011;2961;47.702;9.410;2023-05-18T08:13:38;10.00;;;5.70;;
5869;SDS011;2961;47.702;9.410;2023-05-18T08:16:05;12.50;;;5.40;;
5869;SDS011;2961;47.702;9.410;2023-05-18T08:18:34;8.80;;;5.50;;
5869;SDS011;2961;47.702;9.410;2023-05-18T08:21:01;6.43;;;4.80;;
5869;SDS011;2961;47.702;9.410;2023-05-18T08:23:28;6.80;;;4.30;;
5869;SDS011;2961;47.702;9.410;2023-05-18T08:25:55;8.67;;;4.63;;
5869;SDS011;2961;47.702;9.410;2023-05-18T08:28:24;6.23;;;4.20;;
5869;SDS011;2961;47.702;9.410;2023-05-18T08:38:38;7.47;;;3.97;;
5869;SDS011;2961;47.702;9.410;2023-05-18T08:41:07;6.00;;;4.30;;
5869;SDS011;2961;47.702;9.410;2023-05-18T08:43:40;5.43;;;3.80;;
5869;SDS011;2961;47.702;9.410;2023-05-18T08:46:12;5.53;;;3.77;;
5869;SDS011;2961;47.702;9.410;2023-05-18T08:48:44;6.20;;;4.60;;
5869;SDS011;2961;47.702;9.410;2023-05-18T08:51:14;3.50;;;2.73;;
5869;SDS011;2961;47.702;9.410;2023-05-18T08:53:46;6.00;;;4.60;;
5869;SDS011;2961;47.702;9.410;2023-05-18T08:56:19;4.40;;;3.70;;
5869;SDS011;2961;47.702;9.410;2023-05-18T08:58:49;7.00;;;3.53;;
5869;SDS011;2961;47.702;9.410;2023-05-18T09:01:16;10.43;;;3.53;;
5869;SDS011;2961;47.702;9.410;2023-05-18T09:03:43;12.30;;;4.57;;
5869;SDS011;2961;47.702;9.410;2023-05-18T09:06:13;4.67;;;3.70;;
5869;SDS011;2961;47.702;9.410;2023-05-18T09:08:40;7.68;;;4.00;;
5869;SDS011;2961;47.702;9.410;2023-05-18T09:11:08;7.17;;;3.60;;
5869;SDS011;2961;47.702;9.410;2023-05-18T09:13:36;5.67;;;3.50;;
5869;SDS011;2961;47.702;9.410;2023-05-18T09:16:04;6.50;;;3.30;;
5869;SDS011;2961;47.702;9.410;2023-05-18T09:18:31;5.30;;;3.33;;
5869;SDS011;2961;47.702;9.410;2023-05-18T09:20:58;8.93;;;4.10;;
5869;SDS011;2961;47.702;9.410;2023-05-18T09:23:25;6.60;;;3.63;;
5869;SDS011;2961;47.702;9.410;2023-05-18T09:25:52;6.10;;;3.20;;
5869;SDS011;2961;47.702;9.410;2023-05-18T09:28:31;5.60;;;3.33;;
5869;SDS011;2961;47.702;9.410;2023-05-18T09:31:01;8.50;;;3.50;;
5869;SDS011;2961;47.702;9.410;2023-05-18T09:33:31;7.43;;;3.05;;
5869;SDS011;2961;47.702;9.410;2023-05-18T09:35:59;4.17;;;3.00;;
5869;SDS011;2961;47.702;9.410;2023-05-18T09:38:26;12.30;;;3.70;;
5869;SDS011;2961;47.702;9.410;2023-05-18T09:40:53;5.10;;;2.73;;
5869;SDS011;2961;47.702;9.410;2023-05-18T09:43:20;6.63;;;3.50;;
5869;SDS011;2961;47.702;9.410;2023-05-18T09:45:48;8.07;;;3.43;;
5869;SDS011;2961;47.702;9.410;2023-05-18T09:48:15;4.40;;;2.53;;
5869;SDS011;2961;47.702;9.410;2023-05-18T09:50:42;6.93;;;3.30;;
5869;SDS011;2961;47.702;9.410;2023-05-18T09:53:12;7.20;;;3.40;;
5869;SDS011;2961;47.702;9.410;2023-05-18T09:55:43;4.57;;;3.57;;
5869;SDS011;2961;47.702;9.410;2023-05-18T09:58:11;5.53;;;2.97;;
5869;SDS011;2961;47.702;9.410;2023-05-18T10:00:39;6.60;;;2.90;;
5869;SDS011;2961;47.702;9.410;2023-05-18T10:03:16;5.90;;;2.92;;
5869;SDS011;2961;47.702;9.410;2023-05-18T10:05:44;5.00;;;2.97;;
5869;SDS011;2961;47.702;9.410;2023-05-18T10:08:12;3.37;;;2.60;;
5869;SDS011;2961;47.702;9.410;2023-05-18T10:10:41;10.10;;;3.40;;
5869;SDS011;2961;47.702;9.410;2023-05-18T10:13:11;9.80;;;2.60;;
5869;SDS011;2961;47.702;9.410;2023-05-18T10:15:45;3.50;;;2.40;;
5869;SDS011;2961;47.702;9.410;2023-05-18T10:18:16;2.13;;;2.00;;
5869;SDS011;2961;47.702;9.410;2023-05-18T10:20:46;7.90;;;2.80;;
5869;SDS011;2961;47.702;9.410;2023-05-18T10:23:13;7.20;;;3.17;;
5869;SDS011;2961;47.702;9.410;2023-05-18T10:25:41;5.13;;;2.47;;
5869;SDS011;2961;47.702;9.410;2023-05-18T10:28:10;4.87;;;2.90;;
5869;SDS011;2961;47.702;9.410;2023-05-18T10:30:39;2.97;;;2.30;;
5869;SDS011;2961;47.702;9.410;2023-05-18T10:33:07;10.47;;;2.33;;
5869;SDS011;2961;47.702;9.410;2023-05-18T10:35:37;9.40;;;2.50;;
5869;SDS011;2961;47.702;9.410;2023-05-18T10:38:04;8.77;;;2.90;;
5869;SDS011;2961;47.702;9.410;2023-05-18T10:40:32;3.90;;;2.27;;
5869;SDS011;2961;47.702;9.410;2023-05-18T10:43:01;8.50;;;2.37;;
5869;SDS011;2961;47.702;9.410;2023-05-18T10:45:31;5.30;;;3.73;;
5869;SDS011;2961;47.702;9.410;2023-05-18T10:47:58;7.57;;;2.17;;
5869;SDS011;2961;47.702;9.410;2023-05-18T10:50:26;7.73;;;2.40;;
5869;SDS011;2961;47.702;9.410;2023-05-18T10:52:55;4.00;;;1.90;;
5869;SDS011;2961;47.702;9.410;2023-05-18T10:55:24;9.90;;;2.43;;
5869;SDS011;2961;47.702;9.410;2023-05-18T10:57:55;2.60;;;1.70;;
5869;SDS011;2961;47.702;9.410;2023-05-18T11:00:27;3.07;;;2.20;;
5869;SDS011;2961;47.702;9.410;2023-05-18T11:02:55;6.50;;;2.50;;
5869;SDS011;2961;47.702;9.410;2023-05-18T11:05:23;2.60;;;1.90;;
5869;SDS011;2961;47.702;9.410;2023-05-18T11:07:59;2.10;;;2.00;;
5869;SDS011;2961;47.702;9.410;2023-05-18T11:10:32;3.87;;;2.00;;
5869;SDS011;2961;47.702;9.410;2023-05-18T11:13:00;5.30;;;2.13;;
5869;SDS011;2961;47.702;9.410;2023-05-18T11:18:36;5.53;;;2.10;;
5869;SDS011;2961;47.702;9.410;2023-05-18T11:24:21;3.97;;;2.10;;
5869;SDS011;2961;47.702;9.410;2023-05-18T11:26:55;7.50;;;1.80;;
5869;SDS011;2961;47.702;9.410;2023-05-18T11:29:28;6.40;;;2.60;;
5869;SDS011;2961;47.702;9.410;2023-05-18T11:31:56;2.60;;;1.87;;
5869;SDS011;2961;47.702;9.410;2023-05-18T11:34:36;2.00;;;1.90;;
5869;SDS011;2961;47.702;9.410;2023-05-18T11:37:08;4.40;;;1.90;;
5869;SDS011;2961;47.702;9.410;2023-05-18T11:39:37;2.33;;;2.13;;
5869;SDS011;2961;47.702;9.410;2023-05-18T11:42:05;4.50;;;2.70;;
5869;SDS011;2961;47.702;9.410;2023-05-18T11:44:34;7.93;;;2.40;;
5869;SDS011;2961;47.702;9.410;2023-05-18T11:47:04;2.57;;;2.20;;
5869;SDS011;2961;47.702;9.410;2023-05-18T11:49:35;3.03;;;2.37;;
5869;SDS011;2961;47.702;9.410;2023-05-18T11:52:06;3.73;;;2.57;;
5869;SDS011;2961;47.702;9.410;2023-05-18T11:54:39;5.00;;;2.43;;
5869;SDS011;2961;47.702;9.410;2023-05-18T11:57:08;5.33;;;2.10;;
5869;SDS011;2961;47.702;9.410;2023-05-18T11:59:36;3.90;;;2.60;;
5869;SDS011;2961;47.702;9.410;2023-05-18T12:02:05;4.20;;;2.60;;
5869;SDS011;2961;47.702;9.410;2023-05-18T12:04:35;3.63;;;2.93;;
5869;SDS011;2961;47.702;9.410;2023-05-18T12:07:08;2.37;;;2.17;;
5869;SDS011;2961;47.702;9.410;2023-05-18T12:09:36;2.77;;;2.50;;
5869;SDS011;2961;47.702;9.410;2023-05-18T12:12:08;2.90;;;2.57;;
5869;SDS011;2961;47.702;9.410;2023-05-18T12:14:36;8.90;;;2.70;;
5869;SDS011;2961;47.702;9.410;2023-05-18T12:17:04;4.60;;;2.70;;
5869;SDS011;2961;47.702;9.410;2023-05-18T12:19:35;5.93;;;2.80;;
5869;SDS011;2961;47.702;9.410;2023-05-18T12:22:03;6.10;;;3.10;;
5869;SDS011;2961;47.702;9.410;2023-05-18T12:24:31;3.90;;;3.00;;
5869;SDS011;2961;47.702;9.410;2023-05-18T12:26:59;3.87;;;2.97;;
5869;SDS011;2961;47.702;9.410;2023-05-18T12:29:28;9.53;;;3.47;;
5869;SDS011;2961;47.702;9.410;2023-05-18T12:31:55;11.57;;;2.90;;
5869;SDS011;2961;47.702;9.410;2023-05-18T12:34:26;3.40;;;2.83;;
5869;SDS011;2961;47.702;9.410;2023-05-18T12:36:54;2.60;;;2.40;;
5869;SDS011;2961;47.702;9.410;2023-05-18T12:39:21;9.03;;;3.37;;
5869;SDS011;2961;47.702;9.410;2023-05-18T12:41:50;6.00;;;3.00;;
5869;SDS011;2961;47.702;9.410;2023-05-18T12:44:18;5.27;;;2.93;;
5869;SDS011;2961;47.702;9.410;2023-05-18T12:46:44;3.83;;;2.93;;
5869;SDS011;2961;47.702;9.410;2023-05-18T12:49:13;4.10;;;3.27;;
5869;SDS011;2961;47.702;9.410;2023-05-18T12:51:43;3.50;;;2.67;;
5869;SDS011;2961;47.702;9.410;2023-05-18T12:54:09;4.90;;;2.70;;
5869;SDS011;2961;47.702;9.410;2023-05-18T12:56:52;8.40;;;3.17;;
5869;SDS011;2961;47.702;9.410;2023-05-18T12:59:25;6.33;;;2.93;;
5869;SDS011;2961;47.702;9.410;2023-05-18T13:01:53;6.80;;;3.47;;
5869;SDS011;2961;47.702;9.410;2023-05-18T13:04:20;5.10;;;3.40;;
5869;SDS011;2961;47.702;9.410;2023-05-18T13:06:48;3.03;;;2.63;;
5869;SDS011;2961;47.702;9.410;2023-05-18T13:09:15;4.50;;;2.60;;
5869;SDS011;2961;47.702;9.410;2023-05-18T13:11:49;7.43;;;3.33;;
5869;SDS011;2961;47.702;9.410;2023-05-18T13:14:18;10.73;;;2.80;;
5869;SDS011;2961;47.702;9.410;2023-05-18T13:16:48;5.13;;;3.33;;
5869;SDS011;2961;47.702;9.410;2023-05-18T13:19:16;5.90;;;3.40;;
5869;SDS011;2961;47.702;9.410;2023-05-18T13:21:44;3.20;;;2.30;;
5869;SDS011;2961;47.702;9.410;2023-05-18T13:24:10;16.70;;;3.30;;
5869;SDS011;2961;47.702;9.410;2023-05-18T13:26:38;6.30;;;3.40;;
5869;SDS011;2961;47.702;9.410;2023-05-18T13:29:04;7.20;;;2.97;;
5869;SDS011;2961;47.702;9.410;2023-05-18T13:31:32;5.53;;;3.03;;
5869;SDS011;2961;47.702;9.410;2023-05-18T13:34:00;6.70;;;2.77;;
5869;SDS011;2961;47.702;9.410;2023-05-18T13:36:27;6.63;;;3.50;;
5869;SDS011;2961;47.702;9.410;2023-05-18T13:38:57;3.60;;;2.63;;
5869;SDS011;2961;47.702;9.410;2023-05-18T13:41:24;4.80;;;3.67;;
5869;SDS011;2961;47.702;9.410;2023-05-18T13:43:51;5.83;;;3.10;;
5869;SDS011;2961;47.702;9.410;2023-05-18T13:46:18;6.70;;;3.27;;
5869;SDS011;2961;47.702;9.410;2023-05-18T13:48:45;8.90;;;3.30;;
5869;SDS011;2961;47.702;9.410;2023-05-18T13:51:13;6.23;;;3.37;;
5869;SDS011;2961;47.702;9.410;2023-05-18T13:53:40;7.53;;;3.77;;
5869;SDS011;2961;47.702;9.410;2023-05-18T13:56:07;4.83;;;2.90;;
5869;SDS011;2961;47.702;9.410;2023-05-18T13:58:33;5.80;;;3.30;;
5869;SDS011;2961;47.702;9.410;2023-05-18T14:01:01;5.33;;;3.30;;
5869;SDS011;2961;47.702;9.410;2023-05-18T14:03:31;3.40;;;3.10;;
5869;SDS011;2961;47.702;9.410;2023-05-18T14:06:00;4.70;;;3.00;;
5869;SDS011;2961;47.702;9.410;2023-05-18T14:08:29;4.20;;;3.20;;
5869;SDS011;2961;47.702;9.410;2023-05-18T14:10:55;4.83;;;3.73;;
5869;SDS011;2961;47.702;9.410;2023-05-18T14:13:22;5.23;;;2.53;;
5869;SDS011;2961;47.702;9.410;2023-05-18T14:15:49;7.20;;;3.13;;
5869;SDS011;2961;47.702;9.410;2023-05-18T14:18:16;10.27;;;3.37;;
5869;SDS011;2961;47.702;9.410;2023-05-18T14:20:42;4.67;;;2.90;;
5869;SDS011;2961;47.702;9.410;2023-05-18T14:23:11;8.17;;;3.17;;
5869;SDS011;2961;47.702;9.410;2023-05-18T14:25:39;9.50;;;3.53;;
5869;SDS011;2961;47.702;9.410;2023-05-18T14:28:07;6.43;;;3.00;;
5869;SDS011;2961;47.702;9.410;2023-05-18T14:30:35;4.00;;;2.30;;
5869;SDS011;2961;47.702;9.410;2023-05-18T14:33:01;4.40;;;2.60;;
5869;SDS011;2961;47.702;9.410;2023-05-18T14:35:28;8.00;;;3.43;;
5869;SDS011;2961;47.702;9.410;2023-05-18T14:37:55;7.70;;;3.17;;
5869;SDS011;2961;47.702;9.410;2023-05-18T14:40:22;5.13;;;3.00;;
5869;SDS011;2961;47.702;9.410;2023-05-18T14:42:52;3.77;;;2.87;;
5869;SDS011;2961;47.702;9.410;2023-05-18T14:45:19;6.40;;;3.40;;
5869;SDS011;2961;47.702;9.410;2023-05-18T14:47:46;3.70;;;2.97;;
5869;SDS011;2961;47.702;9.410;2023-05-18T14:50:13;6.37;;;2.90;;
5869;SDS011;2961;47.702;9.410;2023-05-18T14:52:40;7.30;;;2.60;;
5869;SDS011;2961;47.702;9.410;2023-05-18T14:55:07;13.00;;;3.33;;
5869;SDS011;2961;47.702;9.410;2023-05-18T14:57:34;9.07;;;3.27;;
5869;SDS011;2961;47.702;9.410;2023-05-18T15:00:03;4.80;;;2.73;;
5869;SDS011;2961;47.702;9.410;2023-05-18T15:02:30;9.50;;;3.10;;
5869;SDS011;2961;47.702;9.410;2023-05-18T15:04:57;8.33;;;2.90;;
5869;SDS011;2961;47.702;9.410;2023-05-18T15:07:24;5.17;;;2.90;;
5869;SDS011;2961;47.702;9.410;2023-05-18T15:09:50;5.07;;;2.50;;
5869;SDS011;2961;47.702;9.410;2023-05-18T15:12:17;5.27;;;2.70;;
5869;SDS011;2961;47.702;9.410;2023-05-18T15:14:45;6.73;;;2.90;;
5869;SDS011;2961;47.702;9.410;2023-05-18T15:17:13;2.90;;;2.70;;
5869;SDS011;2961;47.702;9.410;2023-05-18T15:19:40;4.63;;;2.93;;
5869;SDS011;2961;47.702;9.410;2023-05-18T15:22:06;7.80;;;3.27;;
5869;SDS011;2961;47.702;9.410;2023-05-18T15:24:33;9.00;;;3.50;;
5869;SDS011;2961;47.702;9.410;2023-05-18T15:27:00;12.53;;;3.40;;
5869;SDS011;2961;47.702;9.410;2023-05-18T15:29:28;7.73;;;3.20;;